Time;durP1;ratioP1;P1;durP2;ratioP2;P2;SDS_P1;SDS_P2;PMS_P1;PMS_P2;Temp;Humidity;BMP_temperature;BMP_pressure;BME280_temperature;BME280_humidity;BME280_pressure;Samples;Min_cycle;Max_cycle;Signal;HPM_P1;HPM_P2
2023/06/20 00:01:42;;;;;;;11.45;4.68;;;;;;;23.72;77.25;100106.75;8357388;28;20045;-62
2023/06/20 00:05:43;;;;;;;8.27;4.22;;;;;;;23.97;75.00;100105.50;8357308;28;20124;-62
2023/06/20 00:09:44;;;;;;;7.82;4.38;;;;;;;24.20;75.14;100111.06;8359889;28;20046;-61
2023/06/20 00:13:44;;;;;;;10.80;4.90;;;;;;;24.10;76.53;100121.03;8358674;28;20099;-62
2023/06/20 00:17:45;;;;;;;12.00;4.60;;;;;;;23.93;79.16;100114.44;8360614;28;20033;-62
2023/06/20 00:21:45;;;;;;;12.90;5.00;;;;;;;23.90;79.04;100120.44;8356599;28;20112;-61
2023/06/20 00:25:45;;;;;;;8.27;5.55;;;;;;;23.70;79.26;100122.69;8356705;28;20279;-61
2023/06/20 00:29:46;;;;;;;11.25;5.97;;;;;;;23.49;82.09;100125.97;8358053;28;20044;-61
2023/06/20 00:33:47;;;;;;;13.18;6.03;;;;;;;23.32;84.70;100122.19;8357620;28;20037;-61
2023/06/20 00:37:47;;;;;;;9.23;6.00;;;;;;;23.30;85.32;100124.31;8359162;28;20033;-61
2023/06/20 00:41:48;;;;;;;10.25;6.80;;;;;;;23.08;87.90;100122.00;8358474;28;20048;-62
2023/06/20 00:45:50;;;;;;;8.23;5.90;;;;;;;22.78;89.78;100121.09;8357718;28;20087;-61
2023/06/20 00:49:51;;;;;;;10.30;5.85;;;;;;;22.62;89.61;100116.19;8357625;28;20063;-60
2023/06/20 00:53:52;;;;;;;13.27;6.40;;;;;;;22.57;90.77;100118.75;8354538;28;20496;-60
2023/06/20 00:57:55;;;;;;;10.85;5.88;;;;;;;22.64;89.90;100118.72;8356047;28;20403;-61
2023/06/20 01:01:55;;;;;;;10.40;5.95;;;;;;;22.48;90.55;100113.75;8350972;28;20041;-61
2023/06/20 01:06:32;;;;;;;12.32;6.13;;;;;;;22.64;89.98;100113.19;8358460;28;20033;-60
2023/06/20 01:11:00;;;;;;;7.75;5.80;;;;;;;22.83;89.23;100112.97;8369297;28;20047;-60
2023/06/20 01:15:18;;;;;;;11.48;5.45;;;;;;;22.80;90.35;100113.44;8356661;28;20040;-60
2023/06/20 01:19:48;;;;;;;7.50;5.47;;;;;;;22.50;92.02;100111.63;8352658;28;20033;-61
2023/06/20 01:24:05;;;;;;;8.27;5.30;;;;;;;22.57;92.63;100107.75;8346015;28;20084;-61
2023/06/20 01:28:19;;;;;;;7.47;5.55;;;;;;;22.77;90.42;100105.63;8352825;28;20033;-61
2023/06/20 01:32:22;;;;;;;7.82;5.05;;;;;;;22.91;91.05;100109.06;8353879;28;20040;-61
2023/06/20 01:36:28;;;;;;;7.10;5.70;;;;;;;22.76;92.74;100112.22;8355697;28;20041;-63
2023/06/20 01:40:30;;;;;;;11.23;5.70;;;;;;;22.67;96.97;100108.09;8357077;28;20032;-63
2023/06/20 01:44:33;;;;;;;7.53;6.15;;;;;;;22.40;97.39;100101.13;8351028;28;20454;-63
2023/06/20 01:48:36;;;;;;;9.55;5.53;;;;;;;22.42;98.08;100100.91;8336510;28;20114;-63
2023/06/20 01:52:37;;;;;;;9.88;5.90;;;;;;;22.35;100.00;100103.69;8364333;28;20091;-63
2023/06/20 01:56:43;;;;;;;6.82;5.82;;;;;;;22.34;98.70;100107.53;8338340;28;20072;-63
2023/06/20 02:00:45;;;;;;;10.30;6.45;;;;;;;22.60;98.86;100107.28;8336342;28;20036;-63
2023/06/20 02:04:48;;;;;;;7.20;5.60;;;;;;;22.63;96.73;100098.56;8338513;28;20041;-63
2023/06/20 02:08:50;;;;;;;7.18;4.82;;;;;;;22.72;95.49;100108.22;8340363;28;20452;-63
2023/06/20 02:12:54;;;;;;;7.88;5.70;;;;;;;22.49;97.67;100104.41;8369047;28;20075;-63
2023/06/20 02:17:00;;;;;;;11.85;6.47;;;;;;;22.21;100.00;100110.41;8357434;28;20041;-63
2023/06/20 02:21:06;;;;;;;10.50;6.70;;;;;;;22.10;100.00;100122.16;8351566;28;20370;-67
2023/06/20 02:25:10;;;;;;;8.85;6.28;;;;;;;21.89;100.00;100117.03;8351307;28;20041;-67
2023/06/20 02:29:14;;;;;;;10.38;6.47;;;;;;;21.75;100.00;100131.97;8358533;28;20040;-67
2023/06/20 02:33:15;;;;;;;9.05;6.90;;;;;;;21.65;100.00;100133.47;8350024;28;20041;-67
2023/06/20 02:37:15;;;;;;;19.95;7.47;;;;;;;21.62;100.00;100123.72;8355999;28;20029;-67
2023/06/20 02:41:17;;;;;;;9.82;7.03;;;;;;;21.55;100.00;100136.69;8354617;28;20043;-66
2023/06/20 02:45:18;;;;;;;15.82;7.80;;;;;;;21.45;100.00;100136.34;8336342;28;20029;-67
2023/06/20 02:49:29;;;;;;;9.85;7.15;;;;;;;21.41;100.00;100126.84;8350729;28;20120;-67
2023/06/20 02:53:57;;;;;;;11.48;6.90;;;;;;;21.48;100.00;100133.16;8350290;28;20040;-66
2023/06/20 02:58:00;;;;;;;12.60;7.28;;;;;;;21.43;100.00;100130.22;8350780;28;20123;-62
2023/06/20 03:02:05;;;;;;;9.45;7.50;;;;;;;21.58;100.00;100133.50;8358764;28;20036;-66
2023/06/20 03:06:09;;;;;;;8.98;7.00;;;;;;;21.55;100.00;100144.94;8362656;28;20061;-63
2023/06/20 03:10:11;;;;;;;13.30;8.07;;;;;;;21.63;100.00;100139.19;8359525;28;20063;-63
2023/06/20 03:14:13;;;;;;;13.00;8.10;;;;;;;21.77;100.00;100143.56;8361260;28;20094;-63
2023/06/20 03:18:14;;;;;;;11.07;7.82;;;;;;;21.83;100.00;100139.09;8360720;28;20041;-63
2023/06/20 03:22:17;;;;;;;8.30;6.45;;;;;;;21.90;100.00;100132.50;8358410;28;20090;-63
2023/06/20 03:26:18;;;;;;;7.03;5.75;;;;;;;21.95;100.00;100135.41;8354728;28;20489;-63
2023/06/20 03:30:19;;;;;;;11.00;5.85;;;;;;;21.91;100.00;100134.16;8361225;28;20467;-63
2023/06/20 03:34:23;;;;;;;8.13;5.97;;;;;;;21.92;100.00;100138.59;8358513;28;20585;-63
2023/06/20 03:38:24;;;;;;;8.40;6.40;;;;;;;21.82;100.00;100119.00;8360372;28;20048;-63
2023/06/20 03:42:25;;;;;;;8.48;6.78;;;;;;;21.98;100.00;100118.44;8360166;28;20041;-63
2023/06/20 03:46:25;;;;;;;5.82;5.22;;;;;;;21.94;100.00;100110.84;8357856;28;20048;-62
2023/06/20 03:50:26;;;;;;;11.13;5.35;;;;;;;21.90;100.00;100109.63;8354655;28;20033;-62
2023/06/20 03:54:27;;;;;;;8.02;6.28;;;;;;;21.95;100.00;100113.38;8354374;28;20033;-61
2023/06/20 03:58:27;;;;;;;7.72;6.20;;;;;;;21.85;100.00;100118.53;8357956;28;20087;-62
2023/06/20 04:02:28;;;;;;;7.25;5.78;;;;;;;21.81;100.00;100128.31;8339644;28;20060;-62
2023/06/20 04:06:30;;;;;;;10.82;6.80;;;;;;;21.82;100.00;100130.00;8349419;28;20033;-62
2023/06/20 04:10:32;;;;;;;10.60;6.80;;;;;;;21.76;100.00;100139.16;8338773;28;20029;-61
2023/06/20 04:14:33;;;;;;;7.75;6.95;;;;;;;21.78;100.00;100139.78;8347846;28;20098;-62
2023/06/20 04:18:33;;;;;;;10.13;6.03;;;;;;;21.54;100.00;100148.78;8356910;28;20037;-61
2023/06/20 04:22:34;;;;;;;7.55;6.00;;;;;;;21.54;100.00;100140.53;8356116;28;20045;-61
2023/06/20 04:26:36;;;;;;;8.13;6.80;;;;;;;21.58;100.00;100133.50;8364309;28;20072;-61
2023/06/20 04:30:37;;;;;;;10.20;7.43;;;;;;;21.61;100.00;100138.56;8364726;28;20102;-61
2023/06/20 04:34:38;;;;;;;9.57;6.63;;;;;;;21.67;100.00;100137.69;8371311;28;20089;-61
2023/06/20 04:38:40;;;;;;;7.75;6.88;;;;;;;21.62;100.00;100143.00;8371587;28;20033;-62
2023/06/20 04:42:42;;;;;;;8.70;6.40;;;;;;;21.58;100.00;100150.00;8372528;28;20067;-62
2023/06/20 04:46:45;;;;;;;7.78;6.82;;;;;;;21.56;100.00;100141.13;8370005;28;20049;-62
2023/06/20 04:50:45;;;;;;;11.32;5.80;;;;;;;21.57;100.00;100147.47;8370575;28;20322;-62
2023/06/20 04:54:47;;;;;;;11.15;7.22;;;;;;;21.57;100.00;100141.97;8370519;28;20049;-62
2023/06/20 04:58:48;;;;;;;8.68;7.13;;;;;;;21.62;100.00;100133.91;8369806;28;20142;-62
2023/06/20 05:02:49;;;;;;;7.78;6.28;;;;;;;21.55;100.00;100138.59;8369482;28;20060;-62
2023/06/20 05:06:50;;;;;;;9.57;7.63;;;;;;;21.65;100.00;100128.78;8367851;28;20045;-61
2023/06/20 05:10:50;;;;;;;13.85;8.13;;;;;;;21.75;100.00;100139.38;8354587;28;20056;-61
2023/06/20 05:14:51;;;;;;;14.07;8.50;;;;;;;21.89;100.00;100125.28;8364363;28;20091;-62
2023/06/20 05:18:51;;;;;;;9.60;7.80;;;;;;;22.02;100.00;100124.34;8369468;28;20090;-62
2023/06/20 05:22:52;;;;;;;10.18;7.85;;;;;;;22.16;100.00;100123.16;8347672;28;20045;-63
2023/06/20 05:26:52;;;;;;;14.45;8.23;;;;;;;22.22;100.00;100125.00;8366045;28;20446;-63
2023/06/20 05:30:53;;;;;;;9.88;7.97;;;;;;;22.28;100.00;100124.97;8365272;28;20105;-64
2023/06/20 05:34:53;;;;;;;11.88;8.57;;;;;;;22.35;100.00;100131.25;8344973;28;20056;-63
2023/06/20 05:38:56;;;;;;;12.50;8.52;;;;;;;22.59;100.00;100127.66;8355896;28;20044;-67
2023/06/20 05:42:56;;;;;;;13.73;8.65;;;;;;;22.61;100.00;100122.78;8359241;28;20040;-67
2023/06/20 05:46:57;;;;;;;15.97;9.23;;;;;;;22.75;100.00;100129.81;8365122;28;20071;-67
2023/06/20 05:51:00;;;;;;;10.53;8.67;;;;;;;22.75;100.00;100142.78;8360238;28;20279;-67
2023/06/20 05:55:00;;;;;;;13.80;9.90;;;;;;;22.83;100.00;100146.06;8365372;28;20618;-67
2023/06/20 05:59:01;;;;;;;16.67;10.93;;;;;;;22.86;100.00;100145.59;8369496;28;20586;-67
2023/06/20 06:03:01;;;;;;;16.55;11.00;;;;;;;23.08;100.00;100146.84;8388743;28;20132;-67
2023/06/20 06:07:02;;;;;;;14.30;9.85;;;;;;;23.49;100.00;100146.13;8360271;28;20036;-64
2023/06/20 06:11:02;;;;;;;12.65;9.60;;;;;;;24.09;100.00;100141.44;8364295;28;20580;-61
2023/06/20 06:15:04;;;;;;;15.02;9.13;;;;;;;24.56;100.00;100148.69;8358694;28;20033;-61
2023/06/20 06:19:05;;;;;;;10.20;7.88;;;;;;;24.69;97.30;100148.50;8362667;28;20040;-61
2023/06/20 06:23:06;;;;;;;12.15;7.68;;;;;;;24.98;95.70;100147.50;8361143;28;20511;-64
2023/06/20 06:27:07;;;;;;;9.80;7.32;;;;;;;24.86;93.73;100141.97;8362089;28;20464;-64
2023/06/20 06:31:11;;;;;;;8.73;7.05;;;;;;;25.15;94.91;100148.44;8397773;28;20037;-64
2023/06/20 06:35:12;;;;;;;11.52;7.40;;;;;;;25.30;91.95;100134.91;8365187;28;20044;-64
2023/06/20 06:39:12;;;;;;;8.30;7.30;;;;;;;25.45;90.10;100138.03;8370819;28;20044;-64
2023/06/20 06:43:14;;;;;;;7.68;5.95;;;;;;;25.73;89.53;100140.81;8371715;28;20048;-64
2023/06/20 06:47:14;;;;;;;8.70;6.13;;;;;;;25.54;85.57;100144.00;8368614;28;20551;-64
2023/06/20 06:51:15;;;;;;;6.63;5.93;;;;;;;25.76;84.40;100140.31;8367308;28;20425;-64
2023/06/20 06:55:16;;;;;;;7.45;5.70;;;;;;;25.72;84.77;100135.50;8367901;28;20270;-64
2023/06/20 06:59:16;;;;;;;8.27;5.68;;;;;;;25.75;84.66;100137.78;8367739;28;20480;-61
2023/06/20 07:03:16;;;;;;;6.28;5.15;;;;;;;26.06;82.67;100140.91;8370821;28;20052;-62
2023/06/20 07:07:17;;;;;;;6.07;5.30;;;;;;;26.17;79.57;100137.19;8396020;28;20116;-62
2023/06/20 07:11:17;;;;;;;7.37;5.43;;;;;;;26.24;79.78;100137.91;8401912;28;20407;-62
2023/06/20 07:15:18;;;;;;;11.10;5.72;;;;;;;26.29;78.80;100132.41;8367541;28;20288;-62
2023/06/20 07:19:18;;;;;;;8.23;5.40;;;;;;;26.65;79.38;100112.50;8370888;28;20447;-62
2023/06/20 07:23:18;;;;;;;7.73;5.30;;;;;;;26.95;77.93;100109.31;8368152;28;20079;-62
2023/06/20 07:27:20;;;;;;;6.05;5.45;;;;;;;27.32;76.60;100115.94;8369255;28;20324;-68
2023/06/20 07:31:20;;;;;;;5.53;5.03;;;;;;;27.10;75.27;100117.00;8367073;28;20049;-67
2023/06/20 07:35:21;;;;;;;7.40;5.57;;;;;;;27.33;75.30;100125.13;8370788;28;20128;-67
2023/06/20 07:39:21;;;;;;;7.32;5.25;;;;;;;27.57;74.21;100109.88;8371856;28;20418;-67
2023/06/20 07:43:24;;;;;;;10.88;5.75;;;;;;;27.60;72.63;100106.56;8384320;28;20430;-67
2023/06/20 07:47:25;;;;;;;6.82;5.45;;;;;;;27.58;73.59;100108.75;8365335;28;20060;-67
2023/06/20 07:51:25;;;;;;;6.45;5.60;;;;;;;28.03;72.70;100109.25;8365963;28;20037;-67
2023/06/20 07:55:26;;;;;;;7.20;5.32;;;;;;;28.18;71.91;100106.63;8369144;28;20052;-66
2023/06/20 07:59:26;;;;;;;6.20;5.43;;;;;;;28.08;71.15;100103.72;8369384;28;20044;-66
2023/06/20 08:03:27;;;;;;;6.07;5.47;;;;;;;28.00;72.50;100087.53;8365946;28;20045;-62
2023/06/20 08:07:27;;;;;;;6.05;5.43;;;;;;;28.07;71.56;100082.59;8370157;28;20308;-62
2023/06/20 08:11:27;;;;;;;9.60;5.70;;;;;;;28.06;72.98;100076.19;8367079;28;20045;-62
2023/06/20 08:15:28;;;;;;;6.72;5.70;;;;;;;28.14;72.77;100078.50;8367064;28;20048;-61
2023/06/20 08:19:28;;;;;;;7.83;5.93;;;;;;;28.37;70.46;100071.72;8366665;28;20030;-62
2023/06/20 08:23:29;;;;;;;8.13;6.13;;;;;;;28.09;71.72;100074.84;8365669;28;20283;-62
2023/06/20 08:27:29;;;;;;;8.52;5.65;;;;;;;28.63;71.30;100077.22;8363578;28;20039;-62
2023/06/20 08:31:36;;;;;;;7.70;5.80;;;;;;;29.10;69.53;100087.50;8366546;28;20491;-62
2023/06/20 08:35:36;;;;;;;6.80;5.28;;;;;;;28.73;69.36;100086.72;8365178;28;20136;-62
2023/06/20 08:39:37;;;;;;;7.28;5.75;;;;;;;29.08;69.10;100093.34;8367880;28;20511;-62
2023/06/20 08:43:37;;;;;;;9.02;5.88;;;;;;;29.42;68.82;100091.81;8362732;28;20111;-62
2023/06/20 08:47:38;;;;;;;5.47;4.97;;;;;;;29.59;67.48;100092.44;8360160;28;20040;-62
2023/06/20 08:51:43;;;;;;;6.25;4.85;;;;;;;29.81;64.97;100090.28;8359141;28;20040;-62
2023/06/20 08:55:44;;;;;;;4.80;4.40;;;;;;;30.01;63.70;100079.13;8367151;28;20116;-62
2023/06/20 08:59:45;;;;;;;6.50;5.20;;;;;;;29.85;65.07;100080.25;8365842;28;20065;-62
2023/06/20 09:03:50;;;;;;;5.97;5.13;;;;;;;29.16;65.32;100087.28;8368522;28;20048;-62
2023/06/20 09:07:51;;;;;;;6.38;4.82;;;;;;;28.78;67.28;100084.81;8364733;28;20607;-61
2023/06/20 09:11:58;;;;;;;5.60;4.68;;;;;;;28.98;67.87;100076.56;8367511;28;20128;-62
2023/06/20 09:16:07;;;;;;;5.35;4.88;;;;;;;29.46;66.65;100087.38;8364661;28;20037;-62
2023/06/20 09:20:14;;;;;;;4.57;4.22;;;;;;;30.27;63.84;100082.81;8366921;28;20040;-67
2023/06/20 09:24:20;;;;;;;4.65;4.25;;;;;;;30.63;64.42;100084.44;8359649;28;20045;-67
2023/06/20 09:28:21;;;;;;;4.25;3.85;;;;;;;30.81;61.93;100086.66;8362654;28;20123;-67
2023/06/20 09:32:22;;;;;;;4.53;4.13;;;;;;;30.43;61.94;100076.94;8365573;28;20499;-66
2023/06/20 09:36:22;;;;;;;4.13;3.83;;;;;;;30.43;63.42;100065.75;8366171;28;20519;-65
2023/06/20 09:40:23;;;;;;;3.73;3.43;;;;;;;30.83;60.80;100069.63;8363903;28;20045;-66
2023/06/20 09:44:25;;;;;;;3.83;3.42;;;;;;;31.38;59.60;100072.22;8362746;28;20626;-66
2023/06/20 09:48:31;;;;;;;4.28;3.85;;;;;;;31.64;59.95;100056.97;8368374;28;20311;-66
2023/06/20 09:52:36;;;;;;;4.35;3.55;;;;;;;31.49;60.35;100065.44;8365824;28;20090;-67
2023/06/20 09:56:47;;;;;;;3.65;3.35;;;;;;;32.38;59.36;100071.53;8364091;28;20371;-67
2023/06/20 10:00:53;;;;;;;3.78;3.28;;;;;;;32.74;56.29;100063.59;8348511;28;20037;-62
2023/06/20 10:04:54;;;;;;;5.28;3.90;;;;;;;31.80;58.74;100069.72;8336343;28;20399;-66
2023/06/20 10:08:55;;;;;;;4.50;3.65;;;;;;;32.83;57.19;100062.69;8350176;28;20080;-62
2023/06/20 10:12:56;;;;;;;4.95;3.58;;;;;;;35.80;52.02;100070.53;8351487;28;20699;-61
2023/06/20 10:17:05;;;;;;;4.65;3.80;;;;;;;33.80;54.68;100059.19;8358550;28;20041;-62
2023/06/20 10:21:12;;;;;;;3.97;3.67;;;;;;;34.98;52.03;100058.56;8344758;28;20040;-61
2023/06/20 10:25:14;;;;;;;3.30;3.00;;;;;;;37.33;47.86;100054.66;8353554;28;20048;-61
2023/06/20 10:29:14;;;;;;;3.22;2.95;;;;;;;37.06;47.93;100049.22;8384084;28;20481;-61
2023/06/20 10:33:25;;;;;;;3.23;2.93;;;;;;;38.37;45.58;100050.72;8331597;28;20068;-61
2023/06/20 10:37:31;;;;;;;3.17;2.88;;;;;;;37.81;46.66;100042.44;8354295;28;20844;-62
2023/06/20 10:41:32;;;;;;;5.28;3.05;;;;;;;38.25;45.38;100030.81;8352790;28;20407;-61
2023/06/20 10:45:34;;;;;;;5.10;2.85;;;;;;;37.32;46.54;100033.22;8353955;28;20519;-61
2023/06/20 10:49:34;;;;;;;4.28;3.03;;;;;;;37.08;47.03;100035.63;8352225;28;20102;-61
2023/06/20 10:53:35;;;;;;;4.20;2.60;;;;;;;38.57;45.09;100031.09;8338409;28;20036;-61
2023/06/20 10:57:35;;;;;;;3.25;2.95;;;;;;;38.22;44.66;100028.66;8346711;28;20429;-62
2023/06/20 11:01:37;;;;;;;2.72;2.53;;;;;;;37.36;47.26;100022.94;8345984;28;20416;-61
2023/06/20 11:05:38;;;;;;;3.83;3.25;;;;;;;35.69;48.44;100013.66;8351464;28;20132;-61
2023/06/20 11:09:39;;;;;;;6.03;3.00;;;;;;;35.81;48.29;100015.94;8339406;28;20048;-61
2023/06/20 11:13:43;;;;;;;3.05;2.85;;;;;;;34.89;49.37;100023.06;8348550;28;20041;-61
2023/06/20 11:17:43;;;;;;;3.10;2.88;;;;;;;36.69;47.53;100012.22;8355758;28;20051;-61
2023/06/20 11:21:43;;;;;;;3.70;2.45;;;;;;;35.43;48.78;100012.59;8355192;28;20037;-61
2023/06/20 11:25:44;;;;;;;3.42;2.58;;;;;;;35.44;47.43;100010.63;8394784;28;20064;-61
2023/06/20 11:29:45;;;;;;;3.67;2.85;;;;;;;36.79;47.62;100012.81;8359376;28;20499;-61
2023/06/20 11:33:46;;;;;;;3.45;2.40;;;;;;;37.67;45.27;100005.06;8364721;28;20420;-61
2023/06/20 11:37:46;;;;;;;3.83;2.47;;;;;;;37.84;43.68;100011.53;8366833;28;20036;-61
2023/06/20 11:41:47;;;;;;;7.63;2.45;;;;;;;39.25;42.55;100000.84;8364576;28;20161;-61
2023/06/20 11:45:47;;;;;;;2.60;2.40;;;;;;;38.90;42.33;99997.34;8360091;28;20041;-61
2023/06/20 11:49:48;;;;;;;3.00;2.70;;;;;;;38.68;42.97;99997.63;8360179;28;20041;-61
2023/06/20 11:54:01;;;;;;;2.60;2.40;;;;;;;38.54;42.51;100002.69;8357173;28;20048;-62
2023/06/20 11:58:02;;;;;;;4.68;2.75;;;;;;;36.88;44.48;99999.56;8338796;28;20068;-61
2023/06/20 12:02:02;;;;;;;3.60;2.72;;;;;;;34.32;49.02;99995.44;8343473;28;20037;-62
2023/06/20 12:06:28;;;;;;;2.53;2.33;;;;;;;37.33;45.66;99994.56;8341754;28;20055;-62
2023/06/20 12:10:29;;;;;;;3.20;2.40;;;;;;;36.32;46.17;99992.97;8329874;28;20620;-62
2023/06/20 12:14:30;;;;;;;3.95;2.97;;;;;;;35.20;47.09;99995.94;8337234;28;20041;-62
2023/06/20 12:18:30;;;;;;;3.65;2.58;;;;;;;34.27;48.63;99978.72;8337204;28;20044;-63
2023/06/20 12:22:32;;;;;;;3.17;2.88;;;;;;;33.38;50.56;99975.13;8330980;28;20065;-63
2023/06/20 12:26:33;;;;;;;3.92;3.25;;;;;;;33.11;50.63;99977.72;8358360;28;20048;-62
2023/06/20 12:30:33;;;;;;;3.40;2.92;;;;;;;33.16;50.58;99971.22;8345868;28;20033;-63
2023/06/20 12:34:33;;;;;;;3.00;2.80;;;;;;;33.82;50.08;99974.72;8358823;28;20502;-62
2023/06/20 12:38:35;;;;;;;3.20;2.87;;;;;;;33.54;50.12;99973.75;8363478;28;20417;-62
2023/06/20 12:42:36;;;;;;;3.67;3.35;;;;;;;32.83;51.74;99967.44;8361046;28;20360;-62
2023/06/20 12:46:37;;;;;;;3.13;2.83;;;;;;;33.36;51.46;99968.94;8363215;28;20040;-62
2023/06/20 12:50:37;;;;;;;5.35;3.33;;;;;;;34.08;49.30;99961.09;8358323;28;20456;-62
2023/06/20 12:54:38;;;;;;;3.20;2.90;;;;;;;34.02;50.20;99962.34;8357274;28;20067;-62
2023/06/20 12:58:38;;;;;;;3.15;2.83;;;;;;;34.06;48.95;99955.81;8360623;28;20036;-62
2023/06/20 13:02:39;;;;;;;2.87;2.67;;;;;;;34.39;49.66;99968.66;8396121;28;20044;-62
2023/06/20 13:06:39;;;;;;;2.90;2.50;;;;;;;34.34;47.35;99953.88;8391042;28;20503;-62
2023/06/20 13:10:40;;;;;;;6.15;2.95;;;;;;;33.74;48.85;99967.84;8362681;28;20045;-62
2023/06/20 13:14:42;;;;;;;3.58;2.83;;;;;;;33.28;49.67;99952.84;8361077;28;20455;-62
2023/06/20 13:18:44;;;;;;;4.53;2.78;;;;;;;33.19;50.28;99953.81;8364959;28;20060;-62
2023/06/20 13:22:45;;;;;;;2.95;2.75;;;;;;;33.46;49.63;99949.22;8356845;28;20052;-62
2023/06/20 13:26:45;;;;;;;3.00;2.70;;;;;;;34.01;48.68;99941.00;8362403;28;20037;-62
2023/06/20 13:30:46;;;;;;;3.20;2.90;;;;;;;34.26;47.41;99938.56;8359036;28;20302;-62
2023/06/20 13:34:47;;;;;;;3.00;2.70;;;;;;;34.07;47.66;99934.16;8364743;28;20279;-62
2023/06/20 13:38:47;;;;;;;2.67;2.47;;;;;;;33.97;47.11;99933.22;8358036;28;20072;-62
2023/06/20 13:42:48;;;;;;;3.20;2.90;;;;;;;33.81;47.85;99923.38;8356595;28;20340;-62
2023/06/20 13:46:49;;;;;;;2.70;2.45;;;;;;;34.20;47.58;99925.78;8359266;28;20045;-62
2023/06/20 13:50:49;;;;;;;3.08;2.88;;;;;;;34.30;46.93;99925.56;8358470;28;20533;-62
2023/06/20 13:54:49;;;;;;;5.37;3.00;;;;;;;34.34;47.25;99920.19;8357803;28;20450;-62
2023/06/20 13:58:50;;;;;;;3.83;3.20;;;;;;;34.73;47.00;99928.94;8357030;28;20044;-62
2023/06/20 14:02:50;;;;;;;3.17;2.90;;;;;;;34.62;47.28;99927.50;8342599;28;20045;-62
2023/06/20 14:06:51;;;;;;;3.65;2.88;;;;;;;34.30;47.42;99910.72;8344549;28;20441;-61
2023/06/20 14:10:53;;;;;;;3.63;2.78;;;;;;;34.18;47.35;99904.78;8339080;28;20045;-62
2023/06/20 14:14:53;;;;;;;3.55;3.00;;;;;;;34.03;47.72;99907.88;8339731;28;20497;-62
2023/06/20 14:18:53;;;;;;;4.75;2.97;;;;;;;34.11;46.82;99918.38;8344477;28;20029;-61
2023/06/20 14:22:54;;;;;;;5.40;2.63;;;;;;;33.88;48.10;99918.22;8340952;28;20041;-61
2023/06/20 14:26:55;;;;;;;4.53;3.17;;;;;;;34.07;47.52;99914.53;8341585;28;20067;-61
2023/06/20 14:30:55;;;;;;;4.50;3.40;;;;;;;33.94;48.66;99916.19;8340005;28;20123;-61
2023/06/20 14:34:56;;;;;;;3.72;3.40;;;;;;;33.88;48.21;99901.38;8343040;28;20091;-61
2023/06/20 14:38:56;;;;;;;5.00;3.10;;;;;;;34.01;48.38;99894.16;8346799;28;20123;-67
2023/06/20 14:42:57;;;;;;;3.90;3.57;;;;;;;33.83;48.80;99895.00;8343833;28;20033;-67
2023/06/20 14:46:57;;;;;;;5.97;3.87;;;;;;;33.68;49.12;99889.66;8359516;28;20357;-67
2023/06/20 14:50:58;;;;;;;7.30;3.60;;;;;;;33.47;49.80;99893.97;8358777;28;20367;-67
2023/06/20 14:55:01;;;;;;;4.40;3.60;;;;;;;33.60;50.36;99902.44;8358814;28;20032;-66
2023/06/20 14:59:01;;;;;;;6.30;4.40;;;;;;;33.38;49.77;99891.03;8366616;28;20090;-66
2023/06/20 15:03:02;;;;;;;3.58;3.25;;;;;;;33.27;49.50;99878.28;8362863;28;20511;-66
2023/06/20 15:07:02;;;;;;;5.00;3.45;;;;;;;33.13;50.60;99887.75;8386092;28;20057;-66
2023/06/20 15:11:03;;;;;;;11.25;3.45;;;;;;;33.05;50.89;99892.06;8339643;28;20045;-66
2023/06/20 15:15:03;;;;;;;5.18;3.13;;;;;;;32.94;51.63;99896.19;8381713;28;20044;-67
2023/06/20 15:19:04;;;;;;;3.95;3.17;;;;;;;32.87;50.47;99872.47;8379020;28;20044;-66
2023/06/20 15:23:04;;;;;;;3.72;2.90;;;;;;;32.77;50.72;99879.00;8344631;28;20045;-68
2023/06/20 15:27:05;;;;;;;4.60;3.83;;;;;;;32.46;50.55;99872.16;8340889;28;20037;-62
2023/06/20 15:31:07;;;;;;;6.78;3.80;;;;;;;32.38;51.78;99884.00;8348994;28;20492;-62
2023/06/20 15:35:11;;;;;;;5.53;4.10;;;;;;;32.26;52.17;99888.34;8331138;28;20038;-62
2023/06/20 15:39:11;;;;;;;6.38;4.07;;;;;;;32.07;52.42;99879.84;8332701;28;20037;-61
2023/06/20 15:43:12;;;;;;;4.95;3.60;;;;;;;32.03;52.66;99885.22;8367643;28;20124;-61
2023/06/20 15:47:13;;;;;;;4.40;4.05;;;;;;;31.94;53.59;99897.34;8341201;28;20075;-61
2023/06/20 15:51:14;;;;;;;4.70;4.20;;;;;;;31.97;53.63;99903.19;8339586;28;20721;-61
2023/06/20 15:55:14;;;;;;;4.15;3.75;;;;;;;31.86;53.89;99906.38;8373769;28;20040;-61
2023/06/20 15:59:16;;;;;;;4.32;3.75;;;;;;;31.67;54.64;99894.22;8339855;28;20094;-60
2023/06/20 16:03:16;;;;;;;4.53;3.95;;;;;;;31.61;54.76;99896.25;8344429;28;20049;-61
2023/06/20 16:07:19;;;;;;;4.50;4.00;;;;;;;31.54;55.16;99897.69;8344918;28;20139;-60
2023/06/20 16:11:20;;;;;;;6.37;4.27;;;;;;;31.35;55.56;99902.34;8347782;28;20051;-60
2023/06/20 16:15:21;;;;;;;6.40;4.63;;;;;;;31.13;56.22;99890.75;8345858;28;20408;-60
2023/06/20 16:19:21;;;;;;;5.13;4.05;;;;;;;31.14;56.16;99886.81;8343925;28;20203;-60
2023/06/20 16:23:22;;;;;;;6.03;4.33;;;;;;;30.85;56.62;99892.31;8342040;28;20045;-60
2023/06/20 16:27:22;;;;;;;5.40;4.32;;;;;;;30.84;56.49;99884.22;8343148;28;20628;-60
2023/06/20 16:31:23;;;;;;;6.28;4.40;;;;;;;30.83;56.50;99885.34;8351640;28;20128;-61
2023/06/20 16:35:23;;;;;;;5.30;4.57;;;;;;;30.78;56.74;99888.16;8353097;28;20400;-61
2023/06/20 16:39:23;;;;;;;4.60;4.20;;;;;;;30.83;57.18;99896.50;8341221;28;20287;-61
2023/06/20 16:43:24;;;;;;;4.95;4.45;;;;;;;30.79;56.26;99889.84;8344190;28;20280;-61
2023/06/20 16:47:24;;;;;;;5.97;4.80;;;;;;;30.82;56.47;99887.28;8352474;28;20151;-61
2023/06/20 16:51:25;;;;;;;5.43;4.45;;;;;;;30.79;56.71;99887.06;8348016;28;20037;-66
2023/06/20 16:55:26;;;;;;;6.50;5.05;;;;;;;30.77;56.96;99889.28;8351009;28;20098;-66
2023/06/20 16:59:26;;;;;;;5.45;4.18;;;;;;;30.81;56.91;99887.59;8348226;28;20044;-66
2023/06/20 17:03:27;;;;;;;5.07;3.88;;;;;;;30.74;57.70;99895.44;8340277;28;20048;-64
2023/06/20 17:07:27;;;;;;;9.65;4.22;;;;;;;30.74;57.96;99892.66;8343697;28;20048;-64
2023/06/20 17:11:28;;;;;;;10.02;4.40;;;;;;;30.79;57.78;99878.69;8348653;28;20400;-64
2023/06/20 17:15:28;;;;;;;7.05;4.28;;;;;;;30.67;58.93;99875.34;8349207;28;20036;-64
2023/06/20 17:19:28;;;;;;;7.83;4.47;;;;;;;30.76;58.96;99880.06;8347157;28;20041;-64
2023/06/20 17:23:29;;;;;;;6.90;4.70;;;;;;;30.81;58.82;99882.84;8334443;28;20724;-64
2023/06/20 17:27:29;;;;;;;5.85;4.32;;;;;;;30.81;58.87;99882.00;8331883;28;20068;-64
2023/06/20 17:31:30;;;;;;;6.75;4.70;;;;;;;30.75;59.19;99872.81;8352690;28;20041;-64
2023/06/20 17:35:30;;;;;;;6.57;5.07;;;;;;;30.68;59.96;99874.22;8351680;28;20122;-64
2023/06/20 17:39:31;;;;;;;8.10;4.72;;;;;;;30.53;60.46;99874.31;8353367;28;20056;-64
2023/06/20 17:43:31;;;;;;;6.07;4.95;;;;;;;30.48;60.44;99874.31;8350908;28;20051;-64
2023/06/20 17:47:32;;;;;;;7.72;4.93;;;;;;;30.34;61.51;99872.16;8350528;28;20508;-63
2023/06/20 17:51:32;;;;;;;5.93;4.38;;;;;;;30.47;61.04;99875.44;8349510;28;20083;-63
2023/06/20 17:55:33;;;;;;;6.80;5.20;;;;;;;30.42;60.94;99874.34;8348922;28;20033;-63
2023/06/20 17:59:33;;;;;;;8.85;5.03;;;;;;;30.24;60.65;99888.94;8350749;28;20044;-63
2023/06/20 18:03:36;;;;;;;5.57;4.85;;;;;;;30.18;61.07;99889.19;8351554;28;20071;-63
2023/06/20 18:07:36;;;;;;;6.38;4.97;;;;;;;30.08;60.45;99901.22;8351303;28;20128;-62
2023/06/20 18:11:37;;;;;;;8.50;5.25;;;;;;;30.04;60.05;99900.09;8351187;28;20495;-63
2023/06/20 18:15:39;;;;;;;7.10;4.70;;;;;;;29.88;60.27;99917.97;8349040;28;20048;-61
2023/06/20 18:19:39;;;;;;;7.68;4.95;;;;;;;29.71;61.58;99925.81;8351790;28;20137;-61
2023/06/20 18:23:39;;;;;;;8.43;5.68;;;;;;;29.68;60.90;99929.16;8347224;28;20527;-62
2023/06/20 18:27:40;;;;;;;6.72;5.55;;;;;;;29.60;61.35;99924.09;8350033;28;20036;-61
2023/06/20 18:31:41;;;;;;;12.18;6.10;;;;;;;29.21;63.88;99945.25;8350824;28;20590;-60
2023/06/20 18:35:41;;;;;;;10.07;6.03;;;;;;;28.85;65.84;99935.13;8359036;28;20465;-61
2023/06/20 18:39:42;;;;;;;8.85;6.32;;;;;;;28.73;65.21;99926.16;8357487;28;20080;-60
2023/06/20 18:43:43;;;;;;;9.40;6.13;;;;;;;28.77;63.29;99935.63;8358553;28;20045;-60